This is the latest recevied weather packets stored in our database for station/object KC3UTO. If no packets are shown the sender has not sent any weather packets the latest 10 day(s).
| Time | Temp. | Humidity | Pressure | Rain* | Wind** | Luminosity | Snow |
|---|---|---|---|---|---|---|---|
| 1777822274 | 11.11° C | 39% | 1013.4 hPa | 0 mm | - | 360 W/m² | - |
| 1777821971 | 10.56° C | 39% | 1013.5 hPa | 0 mm | - | 1013 W/m² | - |
| 1777821669 | 10.56° C | 38% | 1013.7 hPa | 0 mm | - | 285 W/m² | - |
| 1777821366 | 10.56° C | 39% | 1013.5 hPa | 0 mm | - | 755 W/m² | - |
| 1777821063 | 10° C | 40% | 1013.7 hPa | 0 mm | - | 521 W/m² | - |
| 1777820759 | 10.56° C | 40% | 1013.6 hPa | 0 mm | - | 279 W/m² | - |
| 1777820456 | 9.44° C | 42% | 1013.7 hPa | 0 mm | - | 982 W/m² | - |
| 1777820153 | 8.89° C | 43% | 1013.6 hPa | 0 mm | - | 162 W/m² | - |
| 1777819850 | 10° C | 43% | 1013.6 hPa | 0 mm | - | 213 W/m² | - |
| 1777819548 | 11.11° C | 40% | 1013.6 hPa | 0 mm | - | 213 W/m² | - |
| 1777819245 | 11.11° C | 39% | 1013.7 hPa | 0 mm | - | 912 W/m² | - |
| 1777818942 | 10.56° C | 44% | 1013.7 hPa | 0 mm | - | 850 W/m² | - |
| 1777818638 | 10° C | 43% | 1013.9 hPa | 0 mm | - | 495 W/m² | - |
| 1777818336 | 9.44° C | 44% | 1013.8 hPa | 0 mm | - | 739 W/m² | - |
| 1777818032 | 10° C | 43% | 1013.6 hPa | 0 mm | - | 234 W/m² | - |
| 1777817729 | 10.56° C | 41% | 1013.8 hPa | 0 mm | - | 214 W/m² | - |
| 1777817426 | 10.56° C | 40% | 1013.7 hPa | 0 mm | - | 790 W/m² | - |
| 1777817122 | 10.56° C | 41% | 1013.6 hPa | 0 mm | - | 741 W/m² | - |
| 1777816820 | 10° C | 43% | 1013.7 hPa | 0 mm | - | 692 W/m² | - |
| 1777816517 | 10.56° C | 42% | 1013.6 hPa | 0 mm | - | 685 W/m² | - |
| 1777816214 | 10° C | 45% | 1013.7 hPa | 0 mm | - | 691 W/m² | - |
| 1777815912 | 10° C | 44% | 1013.6 hPa | 0 mm | - | 684 W/m² | - |
| 1777815609 | 8.89° C | 47% | 1013.7 hPa | 0 mm | - | 676 W/m² | - |
| 1777815306 | 8.33° C | 47% | 1013.7 hPa | 0 mm | - | 628 W/m² | - |
| 1777815002 | 8.33° C | 48% | 1013.7 hPa | 0 mm | - | 127 W/m² | - |
* Rain latest hour (hover to see other rain measurements)
** Current wind speed in m/s (hover to see current wind gust speed)